Weather reports worldwide

Advertisment
Bourg-St-Maurice, France (7497): temperature & dewpoint: 29.07.2020 02:00:00 - 04.08.2020 02:00:00 (CEST)Bourg-St-Maurice, France (7497): temperature -20cm & temperature -100cm: 29.07.2020 02:00:00 - 04.08.2020 02:00:00 (CEST)Bourg-St-Maurice, France (7497): wind speed & gusts: 29.07.2020 02:00:00 - 04.08.2020 02:00:00 (CEST)Bourg-St-Maurice, France (7497): wind direction: 29.07.2020 02:00:00 - 04.08.2020 02:00:00 (CEST)Bourg-St-Maurice, France (7497): sunshine duration: 29.07.2020 02:00:00 - 04.08.2020 02:00:00 (CEST)Bourg-St-Maurice, France (7497): precipitation: 29.07.2020 02:00:00 - 04.08.2020 02:00:00 (CEST)
Date & Time tt [°C] td [°C] tt -20cm [°C] tt -100cm [°C] ff [km/h] ff [kn] fx [km/h] fx [kn] dd sd [min] rr [mm]
04.08.2020 02:00:00 - - - - - - - - - - -
04.08.2020 01:00:00 11,9 10,5 23,0 21,5 2 1 9 5 W 0 0,0
04.08.2020 00:00:00 11,9 10,6 23,2 21,5 3 1 9 5 W 0 0,0
03.08.2020 23:00:00 12,1 10,3 23,4 21,5 0 0 8 5 N 0 0,0
03.08.2020 22:00:00 12,4 9,6 23,5 21,5 5 3 23 13 SW 0 0,0
03.08.2020 21:00:00 12,9 9,9 23,7 21,5 10 5 21 11 WSW 24 0,0
03.08.2020 20:00:00 13,6 10,6 23,8 21,5 3 2 16 9 ESE 0 0,2
03.08.2020 19:00:00 14,2 11,7 23,9 21,5 4 2 13 7 SW 0 0,8
03.08.2020 18:00:00 14,5 12,2 23,9 21,5 5 3 17 9 WSW 0 0,8
03.08.2020 17:00:00 15,5 12,8 24,0 21,5 7 4 19 10 SSW 0 0,6
03.08.2020 16:00:00 15,7 13,4 24,0 21,5 3 2 16 9 WSW 0 0,2
03.08.2020 15:00:00 15,5 12,6 24,1 21,5 6 3 20 11 S 0 0,6
03.08.2020 14:00:00 15,6 14,3 24,1 21,4 5 3 24 13 SW 0 1,8
03.08.2020 13:00:00 17,2 14,5 24,1 21,5 8 4 19 10 SSW 0 0,4
03.08.2020 12:00:00 18,2 13,5 24,2 21,5 5 3 13 7 SW 0 0,0
03.08.2020 11:00:00 18,0 13,5 24,2 21,5 5 3 14 8 SSW 0 0,0
03.08.2020 10:00:00 17,5 13,6 24,3 21,5 4 2 16 9 S 0 0,0
03.08.2020 09:00:00 16,6 14,1 24,4 21,4 4 2 13 7 SW 0 0,0
03.08.2020 08:00:00 16,3 14,5 24,5 21,4 4 2 10 6 SW 0 0,0
03.08.2020 07:00:00 15,9 14,3 24,6 21,4 2 1 12 6 S 2 0,0
03.08.2020 06:00:00 15,6 14,0 24,8 21,4 2 1 12 6 SSW 0 0,0
03.08.2020 05:00:00 16,2 14,2 24,9 21,4 4 2 13 7 SW 0 0,0
03.08.2020 04:00:00 16,5 14,5 25,0 21,4 6 3 14 8 SW 0 0,0
03.08.2020 03:00:00 16,8 14,3 25,1 21,4 3 2 8 4 WSW 0 0,0
03.08.2020 02:00:00 17,5 14,4 25,2 21,4 5 3 18 10 WSW 0 0,0
03.08.2020 01:00:00 18,1 14,2 25,3 21,4 4 2 15 8 SW 0 0,0
03.08.2020 00:00:00 18,8 13,9 25,5 21,4 3 2 18 10 SSW 0 0,0
02.08.2020 23:00:00 19,4 13,3 25,5 21,4 6 4 21 11 SW 0 0,0
02.08.2020 22:00:00 20,4 13,1 25,6 21,4 5 3 11 6 SW 0 0,0
02.08.2020 21:00:00 21,3 13,5 25,6 21,4 4 2 18 10 WNW 0 0,0
02.08.2020 20:00:00 21,9 14,0 25,7 21,4 4 2 19 10 NW 0 0,0
02.08.2020 19:00:00 22,9 13,7 25,7 21,4 10 5 36 19 N 0 0,0
02.08.2020 18:00:00 25,0 12,2 25,6 21,4 14 7 44 24 ESE 0 0,0
02.08.2020 17:00:00 25,6 13,1 25,5 21,3 14 7 34 19 S 0 0,0
02.08.2020 16:00:00 27,2 13,2 25,3 21,3 12 7 35 19 SSW 15 0,0
02.08.2020 15:00:00 27,7 13,6 25,1 21,3 10 5 29 15 SSE 31 0,0
02.08.2020 14:00:00 27,4 14,1 24,9 21,3 11 6 28 15 SSE 56 0,0
02.08.2020 13:00:00 27,1 14,5 24,7 21,3 8 4 21 12 SSW 47 0,0
02.08.2020 12:00:00 25,7 14,8 24,7 21,3 8 4 20 11 S 42 0,0
02.08.2020 11:00:00 24,1 13,0 24,7 21,3 6 4 14 7 S 50 0,0
02.08.2020 10:00:00 21,5 13,1 24,8 21,3 3 2 8 4 SSE 34 0,0
02.08.2020 09:00:00 19,5 13,2 24,9 21,3 4 2 8 5 NNE 23 0,0
02.08.2020 08:00:00 18,2 13,5 25,0 21,3 2 1 6 3 SE 42 0,0
02.08.2020 07:00:00 16,8 12,9 25,2 21,3 3 2 6 4 WNW 0 0,0
02.08.2020 06:00:00 17,3 12,4 25,3 21,3 2 1 8 5 ENE 0 0,0
02.08.2020 05:00:00 17,5 12,4 25,5 21,3 0 0 5 3 N 0 0,0
02.08.2020 04:00:00 18,2 12,2 25,6 21,3 2 1 7 4 NW 0 0,0
02.08.2020 03:00:00 19,0 13,0 25,7 21,2 4 2 12 6 W 0 0,0
02.08.2020 02:00:00 19,7 12,7 25,9 21,3 5 3 9 5 NNE 0 0,0
02.08.2020 01:00:00 20,2 11,9 26,0 21,3 5 3 8 5 NW 0 0,0
02.08.2020 00:00:00 21,6 12,2 26,1 21,3 3 2 32 17 SW 0 0,0
01.08.2020 23:00:00 22,0 11,7 26,1 21,3 4 2 37 20 NE 0 0,0
01.08.2020 22:00:00 25,4 10,0 26,2 21,2 16 8 34 18 N 0 0,0
01.08.2020 21:00:00 26,2 13,7 26,2 21,2 5 3 16 9 SSW 0 0,0
01.08.2020 20:00:00 27,6 13,5 26,1 21,2 5 3 16 8 WNW 0 0,0
01.08.2020 19:00:00 30,4 13,2 26,0 21,2 4 2 20 11 W 47 0,0
01.08.2020 18:00:00 33,1 11,0 25,8 21,2 4 2 18 10 NW 60 0,0
01.08.2020 17:00:00 34,2 12,5 25,5 21,2 5 3 23 12 SW 56 0,0
01.08.2020 16:00:00 33,9 10,5 25,2 21,2 6 3 22 12 SW 36 0,0
01.08.2020 15:00:00 34,0 13,5 24,8 21,2 5 3 13 7 S 57 0,0
01.08.2020 14:00:00 33,3 14,4 24,6 21,2 7 4 15 8 SSW 60 0,0
01.08.2020 13:00:00 31,5 13,7 24,3 21,2 3 2 11 6 S 60 0,0
01.08.2020 12:00:00 28,8 13,1 24,2 21,2 5 3 12 6 S 60 0,0
01.08.2020 11:00:00 26,6 12,6 24,2 21,2 3 2 6 4 SSE 60 0,0
01.08.2020 10:00:00 24,2 12,8 24,3 21,2 3 2 6 3 E 60 0,0
01.08.2020 09:00:00 21,7 13,8 24,4 21,2 0 0 7 4 N 60 0,0
01.08.2020 08:00:00 18,9 13,1 24,6 21,2 2 1 8 4 NE 42 0,0
01.08.2020 07:00:00 16,5 12,6 24,8 21,2 5 3 8 4 N 0 0,0
01.08.2020 06:00:00 17,2 12,5 24,9 21,2 0 0 6 4 N 0 0,0
01.08.2020 05:00:00 17,1 13,0 25,1 21,2 4 2 6 3 N 0 0,0
01.08.2020 04:00:00 17,9 13,0 25,2 21,1 0 0 8 4 N 0 0,0
01.08.2020 03:00:00 18,3 12,9 25,3 21,1 4 2 9 5 N 0 0,0
01.08.2020 02:00:00 19,0 13,4 25,5 21,1 2 1 8 5 ESE 0 0,0
01.08.2020 01:00:00 20,1 13,5 25,6 21,1 2 1 5 3 NE 0 0,0
01.08.2020 00:00:00 20,9 12,8 25,7 21,1 3 1 5 3 NW 0 0,0
31.07.2020 23:00:00 21,6 13,2 25,8 21,1 2 1 6 3 N 0 0,0
31.07.2020 22:00:00 23,2 12,8 25,9 21,1 3 2 8 5 NNE 0 0,0
31.07.2020 21:00:00 25,0 12,2 25,9 21,1 4 2 10 5 NNW 0 0,0
31.07.2020 20:00:00 27,5 11,5 25,8 21,1 4 2 18 10 NW 22 0,0
31.07.2020 19:00:00 29,6 11,2 25,7 21,1 7 4 17 9 WNW 60 0,0
31.07.2020 18:00:00 32,2 12,9 25,5 21,1 5 3 20 11 WSW 58 0,0
31.07.2020 17:00:00 33,9 9,9 25,2 21,0 6 4 24 13 SSW 60 0,0
31.07.2020 16:00:00 34,3 10,2 24,8 21,0 7 4 26 14 SSW 60 0,0
31.07.2020 15:00:00 33,8 10,4 24,4 21,0 3 2 9 5 SSE 60 0,0
31.07.2020 14:00:00 31,6 11,9 24,1 21,0 4 2 10 6 S 60 0,0
31.07.2020 13:00:00 29,3 13,1 23,9 21,0 3 1 8 5 SSE 60 0,0
31.07.2020 12:00:00 26,6 13,0 23,8 21,0 3 1 8 4 SE 60 0,0
31.07.2020 11:00:00 23,3 12,3 23,9 21,0 3 2 8 5 E 60 0,0
31.07.2020 10:00:00 20,2 14,1 24,0 21,0 4 2 9 5 E 60 0,0
31.07.2020 09:00:00 18,0 14,5 24,1 20,9 4 2 7 4 ENE 60 0,0
31.07.2020 08:00:00 15,4 13,8 24,3 21,0 3 2 6 3 E 44 0,0
31.07.2020 07:00:00 13,7 13,1 24,5 21,0 0 0 9 5 N 0 0,0
31.07.2020 06:00:00 13,9 13,3 24,7 21,0 3 1 6 3 NW 0 0,0
31.07.2020 05:00:00 14,1 13,5 24,9 21,0 0 0 6 3 N 0 0,0
31.07.2020 04:00:00 14,6 13,8 25,1 20,9 3 2 9 5 N 0 0,0
31.07.2020 03:00:00 15,1 14,1 25,3 20,9 3 1 8 4 NNE 0 0,0
31.07.2020 02:00:00 15,9 14,6 25,5 20,9 2 1 13 7 ESE 0 0,0
31.07.2020 01:00:00 16,4 14,8 25,7 20,9 4 2 13 7 N 0 0,0
31.07.2020 00:00:00 17,1 13,4 26,0 20,9 5 3 45 25 N 0 1,0
30.07.2020 23:00:00 17,2 15,7 26,1 20,9 14 7 26 14 N 0 7,1
30.07.2020 22:00:00 17,8 15,6 26,2 20,9 8 5 26 14 NW 0 1,6
30.07.2020 21:00:00 20,5 14,8 26,2 20,9 8 4 52 28 SSW 0 2,6
30.07.2020 20:00:00 29,0 10,6 26,2 20,9 13 7 41 22 WSW 9 0,0
30.07.2020 19:00:00 32,4 11,5 26,0 20,9 7 4 19 11 WSW 60 0,0
30.07.2020 18:00:00 34,2 10,7 25,8 20,9 5 3 21 12 WNW 60 0,0
30.07.2020 17:00:00 35,2 10,9 25,5 20,8 3 2 27 15 W 54 0,0
30.07.2020 16:00:00 35,1 12,1 25,2 20,8 11 6 27 15 S 60 0,0
30.07.2020 15:00:00 34,7 13,0 24,9 20,8 8 4 21 11 SSE 60 0,0
30.07.2020 14:00:00 33,7 12,7 24,6 20,8 4 2 12 7 SW 58 0,0
30.07.2020 13:00:00 31,9 13,6 24,4 20,8 6 3 18 10 S 60 0,0
30.07.2020 12:00:00 29,8 12,7 24,3 20,8 5 3 8 4 ESE 60 0,0
30.07.2020 11:00:00 26,7 14,1 24,3 20,8 3 2 8 4 SE 60 0,0
30.07.2020 10:00:00 24,1 13,6 24,4 20,8 3 1 6 4 E 60 0,0
30.07.2020 09:00:00 21,0 13,9 24,5 20,8 0 0 5 3 N 60 0,0
30.07.2020 08:00:00 18,4 14,1 24,6 20,8 3 2 5 3 NE 16 0,0
30.07.2020 07:00:00 17,2 13,3 24,8 20,8 0 0 4 2 N 0 0,0
30.07.2020 06:00:00 17,4 13,3 24,9 20,8 4 2 8 4 NNW 0 0,0
30.07.2020 05:00:00 17,8 13,7 25,0 20,8 3 1 4 2 NNW 0 0,0
30.07.2020 04:00:00 18,4 13,9 25,2 20,8 2 1 5 3 N 0 0,0
30.07.2020 03:00:00 18,9 14,0 25,3 20,7 2 1 5 3 N 0 0,0
30.07.2020 02:00:00 19,7 14,1 25,4 20,7 0 0 5 3 N 0 0,0
30.07.2020 01:00:00 20,5 13,7 25,5 20,8 3 2 5 3 ENE 0 0,0
30.07.2020 00:00:00 21,6 13,5 25,6 20,7 0 0 8 4 N 0 0,0
29.07.2020 23:00:00 22,4 13,5 25,7 20,7 3 1 11 6 N 0 0,0
29.07.2020 22:00:00 23,2 12,2 25,7 20,7 2 1 14 7 W 0 0,0
29.07.2020 21:00:00 25,3 11,1 25,8 20,7 6 3 15 8 WNW 0 0,0
29.07.2020 20:00:00 26,9 11,0 25,7 20,7 9 5 19 11 W 28 0,0
29.07.2020 19:00:00 30,0 12,4 25,6 20,7 6 3 19 10 W 57 0,0
29.07.2020 18:00:00 32,4 11,5 25,3 20,7 8 4 26 14 SSW 53 0,0
29.07.2020 17:00:00 33,4 12,4 25,1 20,7 10 5 26 14 SW 60 0,0
29.07.2020 16:00:00 33,0 13,6 24,7 20,7 8 5 24 13 SSW 57 0,0
29.07.2020 15:00:00 31,8 15,3 24,4 20,7 8 4 22 12 S 60 0,0
29.07.2020 14:00:00 30,5 15,0 24,1 20,6 7 4 16 9 SSE 60 0,0
29.07.2020 13:00:00 29,3 14,3 23,9 20,7 5 3 13 7 SSE 60 0,0
29.07.2020 12:00:00 27,2 15,2 23,8 20,6 6 3 11 6 S 56 0,0
29.07.2020 11:00:00 25,5 16,1 23,8 20,6 5 3 12 6 S 60 0,0
29.07.2020 10:00:00 23,3 15,6 23,8 20,6 5 3 9 5 SE 60 0,0
29.07.2020 09:00:00 21,4 15,7 24,0 20,7 3 1 6 3 NE 46 0,0
29.07.2020 08:00:00 18,5 15,4 24,0 20,6 3 1 4 2 NNE 10 0,0
29.07.2020 07:00:00 17,6 14,7 24,2 20,6 0 0 5 3 N 0 0,0
29.07.2020 06:00:00 17,9 14,6 24,2 20,6 3 1 4 2 W 0 0,0
29.07.2020 05:00:00 18,6 14,9 24,4 20,6 0 0 5 3 N 0 0,0
29.07.2020 04:00:00 19,0 14,3 24,5 20,6 3 1 5 3 NW 0 0,0
29.07.2020 03:00:00 19,5 14,1 24,6 20,6 3 2 8 4 NW 0 0,0
29.07.2020 02:00:00 20,3 14,0 24,7 20,6 3 2 8 4 WNW 0 0,0

tt = temperature
td = dewpoint
tt -20cm = temperature -20cm
tt -100cm = temperature -100cm
ff = wind speed
fx = gusts
dd = wind direction
sd = sunshine duration
rr = precipitation

Next stations